createdAt,value
2024-04-17T00:02:27.772Z,36.67
2024-04-17T00:05:59.724Z,45.00
2024-04-17T00:08:46.903Z,43.00
2024-04-17T00:12:24.581Z,47.00
2024-04-17T00:15:47.572Z,41.33
2024-04-17T00:18:48.650Z,46.75
2024-04-17T00:21:31.910Z,46.50
2024-04-17T00:24:18.806Z,42.00
2024-04-17T00:27:35.774Z,50.00
2024-04-17T00:31:23.674Z,48.00
2024-04-17T00:34:02.990Z,48.00
2024-04-17T00:36:39.341Z,42.50
2024-04-17T00:39:07.460Z,45.75
2024-04-17T00:41:35.758Z,43.25
2024-04-17T00:44:03.914Z,46.75
2024-04-17T00:46:38.220Z,49.00
2024-04-17T00:49:14.239Z,45.75
2024-04-17T00:51:48.313Z,46.25
2024-04-17T00:54:17.361Z,46.75
2024-04-17T00:56:51.558Z,47.25
2024-04-17T00:59:26.312Z,48.75
2024-04-17T01:01:56.681Z,48.50
2024-04-17T01:04:29.358Z,47.67
2024-04-17T01:06:57.611Z,47.50
2024-04-17T01:09:25.866Z,45.50
2024-04-17T01:11:54.272Z,48.00
2024-04-17T01:15:27.397Z,47.00
2024-04-17T01:18:07.317Z,47.25
2024-04-17T01:20:41.144Z,47.75
2024-04-17T01:23:09.207Z,43.75
2024-04-17T01:25:37.390Z,43.33
2024-04-17T01:28:06.379Z,41.00
2024-04-17T01:30:42.610Z,48.00
2024-04-17T01:33:10.832Z,41.25
2024-04-17T01:35:54.611Z,47.25
2024-04-17T01:38:34.035Z,39.00
2024-04-17T01:41:27.395Z,41.25
2024-04-17T01:44:17.678Z,42.67
2024-04-17T01:47:16.917Z,33.00
2024-04-17T01:49:47.353Z,41.25
2024-04-17T01:52:24.412Z,37.25
2024-04-17T01:55:07.713Z,36.67
2024-04-17T01:57:40.972Z,29.75
2024-04-17T02:00:40.983Z,31.75
2024-04-17T02:03:17.662Z,28.00
2024-04-17T02:06:01.954Z,25.33
2024-04-17T02:08:32.987Z,25.25
2024-04-17T02:11:14.831Z,24.50
2024-04-17T02:13:45.249Z,24.00
2024-04-17T02:16:26.795Z,26.25
2024-04-17T02:18:57.986Z,24.33
2024-04-17T02:21:32.295Z,25.00
2024-04-17T02:24:36.228Z,23.50
2024-04-17T02:27:13.209Z,26.00
2024-04-17T02:29:43.029Z,27.75
2024-04-17T02:32:10.966Z,29.75
2024-04-17T02:34:48.245Z,25.67
2024-04-17T02:37:19.552Z,31.00
2024-04-17T02:39:47.514Z,24.25
2024-04-17T02:42:18.217Z,22.75
2024-04-17T02:44:51.552Z,27.33
2024-04-17T02:47:22.753Z,25.25
2024-04-17T02:49:54.013Z,26.00
2024-04-17T02:52:25.268Z,25.33
2024-04-17T02:55:44.263Z,27.00
2024-04-17T02:58:35.716Z,30.75
2024-04-17T03:01:46.290Z,29.75
2024-04-17T03:04:57.868Z,26.67
2024-04-17T03:08:19.638Z,23.50
2024-04-17T03:11:19.112Z,28.75
2024-04-17T03:14:59.577Z,25.75
2024-04-17T03:17:52.294Z,22.75
2024-04-17T03:21:24.305Z,25.50
2024-04-17T03:24:12.741Z,27.25
2024-04-17T03:26:43.991Z,23.75
2024-04-17T03:29:12.274Z,27.25
2024-04-17T03:31:45.514Z,26.33
2024-04-17T03:34:13.735Z,24.00
2024-04-17T03:36:41.980Z,25.75
2024-04-17T03:39:10.288Z,23.00
2024-04-17T03:41:38.829Z,24.33
2024-04-17T03:44:07.058Z,25.00
2024-04-17T03:46:35.428Z,24.00
2024-04-17T03:49:03.852Z,21.00
2024-04-17T03:51:31.992Z,22.00
2024-04-17T03:54:00.016Z,23.50
2024-04-17T03:56:28.139Z,22.33
2024-04-17T03:58:58.793Z,21.50
2024-04-17T04:01:27.534Z,21.00
2024-04-17T04:03:58.995Z,27.00
2024-04-17T04:06:30.438Z,24.75
2024-04-17T04:08:58.631Z,23.50
2024-04-17T04:11:37.272Z,26.75
2024-04-17T04:14:08.558Z,26.67
2024-04-17T04:16:40.493Z,18.75
2024-04-17T04:19:08.778Z,18.25
2024-04-17T04:21:39.827Z,20.75
2024-04-17T04:24:10.140Z,21.75
2024-04-17T04:26:38.615Z,21.00
2024-04-17T04:29:09.825Z,22.50
2024-04-17T04:31:38.307Z,17.00
2024-04-17T04:34:06.401Z,21.33
2024-04-17T04:36:42.663Z,16.50
2024-04-17T04:39:13.115Z,17.25
2024-04-17T04:41:43.998Z,17.00
2024-04-17T04:44:12.204Z,18.00
2024-04-17T04:46:49.613Z,18.75
2024-04-17T04:49:17.850Z,17.75
2024-04-17T04:51:48.963Z,28.00
2024-04-17T04:54:30.478Z,18.25
2024-04-17T04:56:58.561Z,23.25
2024-04-17T04:59:27.382Z,20.75
2024-04-17T05:01:55.681Z,21.00
2024-04-17T05:04:24.043Z,16.25
2024-04-17T05:06:55.558Z,20.75
2024-04-17T05:09:28.041Z,19.50
2024-04-17T05:11:58.868Z,18.00
2024-04-17T05:14:35.317Z,17.75
2024-04-17T05:17:06.183Z,15.75
2024-04-17T05:19:34.301Z,14.67
2024-04-17T05:22:02.470Z,17.00
2024-04-17T05:24:30.818Z,16.67
2024-04-17T05:27:21.953Z,13.00
2024-04-17T05:29:50.126Z,15.00
2024-04-17T05:32:21.170Z,14.50
2024-04-17T05:34:49.306Z,14.00
2024-04-17T05:37:20.321Z,16.75
2024-04-17T05:39:51.438Z,17.75
2024-04-17T05:42:19.938Z,14.75
2024-04-17T05:44:48.023Z,15.00
2024-04-17T05:47:29.121Z,15.00
2024-04-17T05:50:01.428Z,13.75
2024-04-17T05:52:35.510Z,14.50
2024-04-17T05:55:09.304Z,15.75
2024-04-17T05:58:00.275Z,15.00
2024-04-17T06:00:30.845Z,15.75
2024-04-17T06:03:02.799Z,13.00
2024-04-17T06:05:31.599Z,14.00
2024-04-17T06:07:59.894Z,18.00
2024-04-17T06:10:28.508Z,14.25
2024-04-17T06:12:56.567Z,14.75
2024-04-17T06:15:24.835Z,16.25
2024-04-17T06:17:57.201Z,20.25
2024-04-17T06:20:29.538Z,17.00
2024-04-17T06:23:03.390Z,18.50
2024-04-17T06:25:31.782Z,15.50
2024-04-17T06:28:00.374Z,15.50
2024-04-17T06:30:30.320Z,15.25
2024-04-17T06:33:02.049Z,15.75
2024-04-17T06:35:39.239Z,21.25
2024-04-17T06:38:07.692Z,16.67
2024-04-17T06:40:36.457Z,14.00
2024-04-17T06:43:08.061Z,14.67
2024-04-17T06:45:36.127Z,15.75
2024-04-17T06:48:05.975Z,17.75
2024-04-17T06:50:34.936Z,19.50
2024-04-17T06:53:05.511Z,17.00
2024-04-17T06:55:33.905Z,18.00
2024-04-17T06:58:31.886Z,15.75
2024-04-17T07:01:12.293Z,19.75
2024-04-17T07:03:43.576Z,14.75
2024-04-17T07:06:12.844Z,14.25
2024-04-17T07:08:44.175Z,19.33
2024-04-17T07:11:15.767Z,17.00
2024-04-17T07:13:47.137Z,18.00
2024-04-17T07:16:22.957Z,20.25
2024-04-17T07:18:54.495Z,23.00
2024-04-17T07:21:26.124Z,15.75
2024-04-17T07:23:57.690Z,18.00
2024-04-17T07:26:26.302Z,17.00
2024-04-17T07:29:02.437Z,16.00
2024-04-17T07:31:35.782Z,17.00
2024-04-17T07:34:04.225Z,18.00
2024-04-17T07:36:32.560Z,15.00
2024-04-17T07:39:00.753Z,15.00
2024-04-17T07:41:32.385Z,15.00
2024-04-17T07:44:10.214Z,14.00
2024-04-17T07:46:49.320Z,16.67
2024-04-17T07:49:22.777Z,19.75
2024-04-17T07:51:56.735Z,19.00
2024-04-17T07:54:31.039Z,18.25
2024-04-17T07:57:12.168Z,16.00
2024-04-17T07:59:46.291Z,17.50
2024-04-17T08:02:22.501Z,14.00
2024-04-17T08:04:59.125Z,15.75
2024-04-17T08:07:35.599Z,15.33
2024-04-17T08:10:07.247Z,15.75
2024-04-17T08:12:41.525Z,15.67
2024-04-17T08:15:22.560Z,14.00
2024-04-17T08:17:58.881Z,14.00
2024-04-17T08:20:33.258Z,13.50
2024-04-17T08:23:12.120Z,15.75
2024-04-17T08:25:43.123Z,13.67
2024-04-17T08:28:17.945Z,13.00
2024-04-17T08:30:46.564Z,12.67
2024-04-17T08:33:15.383Z,14.00
2024-04-17T08:35:43.666Z,15.00
2024-04-17T08:38:27.619Z,14.00
2024-04-17T08:40:58.564Z,16.50
2024-04-17T08:43:28.542Z,17.00
2024-04-17T08:46:08.165Z,16.00
2024-04-17T08:48:39.149Z,13.00
2024-04-17T08:51:20.045Z,13.00
2024-04-17T08:54:08.478Z,17.00
2024-04-17T08:56:42.052Z,15.00
2024-04-17T08:59:36.761Z,16.00
2024-04-17T09:02:21.468Z,18.00
2024-04-17T09:04:53.100Z,15.00
2024-04-17T09:07:28.250Z,17.67
2024-04-17T09:09:56.758Z,13.00
2024-04-17T09:12:25.408Z,14.75
2024-04-17T09:14:57.204Z,17.00
2024-04-17T09:17:33.573Z,16.25
2024-04-17T09:20:04.194Z,13.75
2024-04-17T09:22:36.102Z,14.25
2024-04-17T09:25:20.394Z,13.75
2024-04-17T09:27:49.000Z,20.25
2024-04-17T09:30:17.274Z,16.00
2024-04-17T09:32:45.760Z,13.50
2024-04-17T09:35:17.232Z,11.75
2024-04-17T09:37:47.674Z,17.00
2024-04-17T09:40:15.982Z,15.00
2024-04-17T09:42:48.513Z,14.00
2024-04-17T09:45:23.349Z,14.50
2024-04-17T09:47:54.366Z,14.00
2024-04-17T09:50:31.495Z,14.67
2024-04-17T09:53:04.083Z,13.00
2024-04-17T09:55:32.833Z,13.00
2024-04-17T09:58:14.179Z,13.00
2024-04-17T10:00:44.756Z,18.00
2024-04-17T10:03:19.618Z,15.75
2024-04-17T10:05:48.342Z,13.00
2024-04-17T10:08:23.288Z,12.00
2024-04-17T10:10:52.304Z,14.75
2024-04-17T10:13:29.642Z,14.25
2024-04-17T10:16:14.800Z,15.00
2024-04-17T10:18:48.782Z,13.00
2024-04-17T10:21:24.717Z,13.00
2024-04-17T10:24:37.606Z,13.00
2024-04-17T10:27:06.098Z,13.33
2024-04-17T10:29:51.345Z,15.00
2024-04-17T10:32:26.142Z,12.50
2024-04-17T10:34:56.835Z,13.75
2024-04-17T10:37:35.946Z,13.25
2024-04-17T10:40:10.307Z,12.00
2024-04-17T10:42:38.730Z,13.00
2024-04-17T10:45:09.839Z,14.50
2024-04-17T10:47:40.472Z,21.75
2024-04-17T10:50:16.816Z,20.75
2024-04-17T10:53:10.994Z,14.00
2024-04-17T10:55:41.422Z,12.00
2024-04-17T10:58:11.562Z,13.00
2024-04-17T11:00:40.574Z,12.00
2024-04-17T11:03:22.476Z,13.00
2024-04-17T11:05:50.587Z,12.00
2024-04-17T11:08:57.877Z,13.00
2024-04-17T11:11:29.624Z,12.25
2024-04-17T11:14:27.079Z,12.00
2024-04-17T11:16:59.550Z,13.00
2024-04-17T11:19:38.424Z,16.00
2024-04-17T11:22:29.992Z,14.00
2024-04-17T11:25:00.495Z,15.50
2024-04-17T11:27:41.537Z,15.00
2024-04-17T11:30:19.312Z,16.00
2024-04-17T11:32:50.496Z,14.00
2024-04-17T11:35:19.036Z,13.00
2024-04-17T11:38:02.393Z,12.00
2024-04-17T11:40:53.285Z,13.00
2024-04-17T11:44:16.058Z,12.75
2024-04-17T11:46:44.505Z,13.75
2024-04-17T11:49:25.172Z,16.25
2024-04-17T11:51:53.529Z,15.00
2024-04-17T11:54:38.344Z,15.75
2024-04-17T11:57:17.856Z,13.00
2024-04-17T11:59:47.180Z,15.00
2024-04-17T12:02:15.821Z,14.33
2024-04-17T12:04:56.124Z,14.00
2024-04-17T12:07:24.438Z,16.33
2024-04-17T12:09:52.710Z,17.00
2024-04-17T12:12:32.042Z,18.50
2024-04-17T12:15:02.623Z,18.00
2024-04-17T12:17:41.674Z,16.00
2024-04-17T12:20:16.482Z,14.75
2024-04-17T12:23:25.571Z,16.00
2024-04-17T12:26:34.555Z,16.33
2024-04-17T12:29:13.725Z,14.75
2024-04-17T12:32:05.600Z,21.33
2024-04-17T12:35:02.973Z,15.67
2024-04-17T12:37:41.746Z,17.00
2024-04-17T12:40:32.998Z,22.67
2024-04-17T12:43:21.494Z,21.67
2024-04-17T12:45:49.613Z,15.00
2024-04-17T12:48:23.745Z,19.67
2024-04-17T12:51:07.621Z,14.50
2024-04-17T12:53:41.540Z,13.00
2024-04-17T12:56:09.764Z,12.00
2024-04-17T12:58:46.066Z,13.00
2024-04-17T13:01:14.721Z,13.00
2024-04-17T13:03:46.670Z,18.50
2024-04-17T13:06:20.962Z,13.33
2024-04-17T13:08:53.072Z,21.75
2024-04-17T13:11:21.621Z,21.00
2024-04-17T13:13:55.659Z,16.00
2024-04-17T13:16:27.115Z,22.50
2024-04-17T13:18:56.788Z,12.00
2024-04-17T13:21:27.665Z,17.67
2024-04-17T13:23:55.956Z,13.00
2024-04-17T13:26:27.163Z,16.25
2024-04-17T13:29:10.675Z,13.00
2024-04-17T13:31:39.365Z,12.00
2024-04-17T13:34:09.770Z,14.50
2024-04-17T13:36:43.278Z,13.00
2024-04-17T13:39:20.743Z,12.50
2024-04-17T13:41:49.207Z,12.00
2024-04-17T13:44:21.755Z,13.75
2024-04-17T13:46:50.142Z,15.00
2024-04-17T13:49:26.313Z,17.00
2024-04-17T13:51:57.489Z,17.00
2024-04-17T13:54:25.538Z,15.00
2024-04-17T13:56:56.941Z,15.25
2024-04-17T13:59:27.778Z,13.75
2024-04-17T14:02:01.392Z,12.75
2024-04-17T14:04:32.230Z,12.00
2024-04-17T14:07:00.826Z,16.25
2024-04-17T14:10:08.335Z,11.75
2024-04-17T14:12:53.709Z,14.00
2024-04-17T14:15:24.837Z,12.75
2024-04-17T14:17:59.827Z,14.00
2024-04-17T14:20:29.270Z,16.00
2024-04-17T14:23:00.755Z,18.25
2024-04-17T14:25:34.575Z,15.00
2024-04-17T14:28:07.234Z,14.00
2024-04-17T14:30:38.673Z,15.33
2024-04-17T14:33:12.048Z,15.25
2024-04-17T14:35:45.881Z,16.75
2024-04-17T14:38:18.352Z,16.75
2024-04-17T14:40:59.786Z,16.00
2024-04-17T14:43:41.703Z,15.75
2024-04-17T14:46:15.199Z,17.75
2024-04-17T14:48:44.800Z,15.00
2024-04-17T14:51:17.689Z,16.00
2024-04-17T14:53:52.298Z,14.25
2024-04-17T14:56:24.746Z,19.00
2024-04-17T14:58:55.980Z,24.00
2024-04-17T15:01:27.898Z,17.75
2024-04-17T15:03:57.311Z,18.75
2024-04-17T15:06:28.337Z,19.25
2024-04-17T15:08:56.605Z,18.75
2024-04-17T15:11:28.303Z,23.33
2024-04-17T15:13:58.994Z,19.25
2024-04-17T15:16:28.708Z,22.00
2024-04-17T15:19:00.725Z,20.00
2024-04-17T15:21:36.662Z,22.00
2024-04-17T15:24:08.927Z,20.00
2024-04-17T15:26:51.352Z,25.25
2024-04-17T15:29:22.554Z,25.00
2024-04-17T15:31:51.719Z,20.00
2024-04-17T15:34:19.928Z,24.75
2024-04-17T15:36:48.279Z,23.50
2024-04-17T15:39:24.304Z,20.75
2024-04-17T15:42:03.755Z,23.00
2024-04-17T15:44:32.526Z,28.25
2024-04-17T15:47:08.290Z,22.25
2024-04-17T15:49:40.737Z,24.00
2024-04-17T15:52:10.685Z,21.00
2024-04-17T15:54:42.098Z,21.25
2024-04-17T15:57:10.631Z,32.50
2024-04-17T15:59:43.837Z,26.50
2024-04-17T16:02:12.126Z,23.50
2024-04-17T16:04:43.935Z,34.00
2024-04-17T16:07:18.266Z,25.00
2024-04-17T16:09:51.982Z,23.50
2024-04-17T16:12:20.632Z,29.75
2024-04-17T16:14:54.707Z,33.75
2024-04-17T16:17:32.260Z,30.00
2024-04-17T16:20:06.868Z,31.75
2024-04-17T16:23:23.340Z,26.50
2024-04-17T16:26:22.415Z,31.33
2024-04-17T16:29:02.162Z,27.25
2024-04-17T16:31:32.801Z,30.00
2024-04-17T16:34:04.089Z,28.50
2024-04-17T16:36:58.874Z,25.00
2024-04-17T16:39:31.534Z,29.00
2024-04-17T16:42:02.632Z,31.25
2024-04-17T16:44:46.107Z,24.75
2024-04-17T16:47:37.016Z,22.00
2024-04-17T16:50:08.671Z,26.00
2024-04-17T16:52:51.173Z,26.25
2024-04-17T16:55:25.935Z,27.75
2024-04-17T16:58:02.468Z,25.75
2024-04-17T17:01:00.460Z,28.00
2024-04-17T17:03:29.519Z,28.67
2024-04-17T17:06:02.732Z,27.50
2024-04-17T17:08:50.477Z,22.67
2024-04-17T17:11:36.290Z,26.00
2024-04-17T17:14:46.424Z,30.00
2024-04-17T17:17:20.372Z,24.50
2024-04-17T17:20:08.934Z,26.50
2024-04-17T17:22:41.683Z,21.75
2024-04-17T17:25:18.908Z,25.75
2024-04-17T17:27:53.404Z,22.00
2024-04-17T17:31:10.288Z,25.00
2024-04-17T17:33:51.639Z,23.50
2024-04-17T17:36:44.138Z,22.67
2024-04-17T17:39:28.257Z,19.33
2024-04-17T17:42:07.847Z,22.00
2024-04-17T17:44:41.686Z,22.00
2024-04-17T17:47:22.938Z,21.75
2024-04-17T17:50:13.327Z,19.50
2024-04-17T17:52:45.081Z,21.75
2024-04-17T17:55:17.771Z,24.75
2024-04-17T17:58:17.247Z,22.75
2024-04-17T18:00:55.483Z,29.50
2024-04-17T18:03:41.477Z,24.00
2024-04-17T18:06:12.933Z,24.75
2024-04-17T18:08:48.518Z,27.25
2024-04-17T18:11:20.965Z,25.25
2024-04-17T18:13:51.892Z,22.00
2024-04-17T18:16:29.149Z,28.75
2024-04-17T18:19:05.883Z,26.67
2024-04-17T18:21:45.983Z,29.75
2024-04-17T18:24:18.917Z,26.75
2024-04-17T18:27:18.441Z,21.50
2024-04-17T18:29:46.804Z,24.33
2024-04-17T18:32:15.254Z,22.25
2024-04-17T18:35:02.258Z,22.67
2024-04-17T18:37:45.791Z,24.67
2024-04-17T18:40:23.164Z,24.67
2024-04-17T18:43:01.033Z,23.50
2024-04-17T18:45:41.997Z,23.00
2024-04-17T18:48:10.409Z,24.25
2024-04-17T18:50:39.219Z,34.25
2024-04-17T18:53:13.201Z,29.67
2024-04-17T18:55:42.686Z,28.50
2024-04-17T18:58:13.916Z,24.75
2024-04-17T19:00:52.140Z,25.75
2024-04-17T19:03:38.889Z,26.67
2024-04-17T19:06:07.551Z,26.33
2024-04-17T19:08:42.845Z,26.75
2024-04-17T19:11:19.518Z,26.50
2024-04-17T19:14:12.945Z,24.00
2024-04-17T19:16:43.449Z,24.00
2024-04-17T19:19:14.616Z,26.00
2024-04-17T19:21:59.622Z,30.25
2024-04-17T19:24:28.761Z,31.00
2024-04-17T19:27:06.152Z,32.00
2024-04-17T19:29:53.699Z,29.00
2024-04-17T19:32:38.694Z,31.00
2024-04-17T19:35:32.802Z,35.75
2024-04-17T19:38:06.008Z,30.00
2024-04-17T19:40:39.674Z,30.50
2024-04-17T19:43:13.092Z,45.00
2024-04-17T19:45:51.312Z,39.67
2024-04-17T19:48:19.744Z,42.75
2024-04-17T19:51:01.036Z,49.00
2024-04-17T19:53:29.680Z,41.00
2024-04-17T19:55:59.347Z,48.25
2024-04-17T19:58:27.954Z,40.00
2024-04-17T20:01:04.885Z,39.00
2024-04-17T20:03:46.229Z,42.50
2024-04-17T20:06:14.963Z,52.25
2024-04-17T20:08:52.198Z,60.75
2024-04-17T20:11:23.739Z,74.50
2024-04-17T20:13:57.020Z,79.00
2024-04-17T20:16:34.635Z,73.25
2024-04-17T20:19:39.540Z,76.50
2024-04-17T20:22:15.161Z,69.00
2024-04-17T20:24:51.812Z,66.50
2024-04-17T20:27:22.264Z,62.75
2024-04-17T20:30:12.523Z,45.75
2024-04-17T20:32:49.485Z,42.75
2024-04-17T20:35:28.557Z,45.25
2024-04-17T20:38:20.192Z,40.50
2024-04-17T20:40:58.252Z,46.00
2024-04-17T20:43:45.737Z,45.00
2024-04-17T20:46:34.510Z,53.00
2024-04-17T20:49:05.631Z,47.25
2024-04-17T20:51:34.114Z,47.00
2024-04-17T20:54:30.860Z,43.50
2024-04-17T20:57:02.539Z,42.00
2024-04-17T20:59:56.491Z,48.00
2024-04-17T21:02:29.918Z,48.50
2024-04-17T21:05:01.547Z,48.75
2024-04-17T21:07:37.926Z,43.50
2024-04-17T21:10:18.986Z,50.00
2024-04-17T21:13:07.235Z,49.25
2024-04-17T21:15:38.755Z,47.75
2024-04-17T21:18:29.942Z,56.50
2024-04-17T21:21:12.797Z,48.67
2024-04-17T21:23:42.412Z,58.00
2024-04-17T21:26:17.695Z,51.50
2024-04-17T21:29:05.122Z,49.75
2024-04-17T21:31:42.401Z,59.00
2024-04-17T21:34:14.048Z,63.25
2024-04-17T21:37:06.929Z,57.33
2024-04-17T21:39:35.224Z,58.50
2024-04-17T21:42:41.518Z,66.00
2024-04-17T21:45:21.425Z,62.50
2024-04-17T21:48:23.261Z,62.67
2024-04-17T21:50:59.004Z,63.33
2024-04-17T21:53:33.485Z,62.75
2024-04-17T21:56:26.224Z,62.25
2024-04-17T21:58:58.681Z,66.33
2024-04-17T22:01:31.357Z,59.50
2024-04-17T22:03:59.652Z,58.25
2024-04-17T22:06:47.762Z,57.75
2024-04-17T22:09:36.308Z,62.75
2024-04-17T22:12:05.123Z,60.75
2024-04-17T22:14:36.305Z,55.00
2024-04-17T22:17:05.005Z,56.50
2024-04-17T22:19:46.912Z,56.25
2024-04-17T22:22:17.577Z,59.00
2024-04-17T22:25:10.081Z,59.50
2024-04-17T22:28:11.519Z,55.75
2024-04-17T22:30:45.531Z,53.25
2024-04-17T22:33:50.225Z,51.75
2024-04-17T22:36:39.198Z,58.25
2024-04-17T22:39:09.842Z,56.00
2024-04-17T22:41:44.236Z,56.00
2024-04-17T22:44:13.235Z,55.75
2024-04-17T22:46:50.862Z,59.33
2024-04-17T22:49:35.573Z,55.75
2024-04-17T22:52:35.146Z,58.75
2024-04-17T22:55:12.153Z,60.25
2024-04-17T22:58:06.037Z,61.75
2024-04-17T23:00:42.232Z,58.75
2024-04-17T23:03:35.580Z,59.50
2024-04-17T23:06:10.891Z,63.00
2024-04-17T23:08:56.975Z,63.75
2024-04-17T23:12:14.162Z,66.00
2024-04-17T23:15:33.179Z,58.33
2024-04-17T23:18:20.349Z,58.25
2024-04-17T23:20:57.881Z,64.00
2024-04-17T23:24:19.719Z,66.00
2024-04-17T23:27:17.733Z,63.00
2024-04-17T23:29:58.928Z,61.75
2024-04-17T23:32:41.746Z,66.25
2024-04-17T23:35:54.166Z,64.50
2024-04-17T23:39:25.938Z,59.25
2024-04-17T23:42:00.200Z,68.33
2024-04-17T23:44:47.966Z,63.00
2024-04-17T23:47:24.409Z,67.00
2024-04-17T23:50:32.277Z,63.50
2024-04-17T23:53:18.077Z,63.33
2024-04-17T23:56:21.447Z,56.75
2024-04-17T23:59:41.521Z,59.67
